Time;durP1;ratioP1;P1;durP2;ratioP2;P2;SDS_P1;SDS_P2;PMS_P1;PMS_P2;Temp;Humidity;BMP_temperature;BMP_pressure;BME280_temperature;BME280_humidity;BME280_pressure;Samples;Min_cycle;Max_cycle;Signal;HPM_P1;HPM_P2
2020/12/08 00:00:06;;;;;;;27.60;23.00;;;;;;;0.53;95.03;94472.97;1048833;28;20039;-86
2020/12/08 00:00:40;;;;;;;27.77;23.48;;;;;;;0.52;95.16;94479.19;1052949;28;20020;-85
2020/12/08 00:01:10;;;;;;;25.92;21.90;;;;;;;0.61;94.76;94479.66;1053309;28;20024;-85
2020/12/08 00:01:44;;;;;;;26.95;23.00;;;;;;;0.54;94.96;94477.94;1052139;28;20039;-85
2020/12/08 00:02:18;;;;;;;27.42;21.80;;;;;;;0.52;94.60;94474.78;1049655;28;20031;-85
2020/12/08 00:02:49;;;;;;;27.80;23.00;;;;;;;0.56;95.35;94485.53;1053101;28;20046;-85
2020/12/08 00:03:19;;;;;;;30.23;23.38;;;;;;;0.61;96.12;94480.47;1052542;28;20490;-86
2020/12/08 00:03:50;;;;;;;28.05;22.58;;;;;;;0.50;94.74;94487.25;1053297;28;20036;-85
2020/12/08 00:04:23;;;;;;;28.02;23.30;;;;;;;0.49;94.53;94483.06;1052229;28;20031;-87
2020/12/08 00:04:53;;;;;;;29.52;23.83;;;;;;;0.56;95.50;94475.91;1048545;28;20040;-84
2020/12/08 00:05:24;;;;;;;27.63;22.13;;;;;;;0.47;94.54;94481.66;1047978;28;20389;-83
2020/12/08 00:05:54;;;;;;;28.55;23.33;;;;;;;0.51;94.66;94473.19;1047906;28;20028;-83
2020/12/08 00:06:25;;;;;;;26.85;23.05;;;;;;;0.54;94.19;94480.56;1043959;28;20025;-83
2020/12/08 00:07:06;;;;;;;28.13;23.17;;;;;;;0.53;95.11;94478.19;1048109;28;20032;-85
2020/12/08 00:07:36;;;;;;;28.88;23.45;;;;;;;0.53;95.71;94478.97;1047729;28;20026;-83
2020/12/08 00:08:07;;;;;;;27.88;21.88;;;;;;;0.54;95.01;94475.34;1052171;28;20209;-85
2020/12/08 00:08:37;;;;;;;28.10;23.00;;;;;;;0.56;94.57;94475.09;1052582;28;20043;-84
2020/12/08 00:09:08;;;;;;;28.50;23.25;;;;;;;0.54;94.92;94480.56;1052185;28;20487;-83
2020/12/08 00:09:39;;;;;;;29.45;23.95;;;;;;;0.58;95.73;94471.25;1052133;28;20025;-83
2020/12/08 00:10:09;;;;;;;27.67;23.27;;;;;;;0.61;95.50;94472.63;1052390;28;20032;-85
2020/12/08 00:10:40;;;;;;;27.65;22.58;;;;;;;0.65;95.49;94478.19;1052146;28;20023;-84
2020/12/08 00:11:16;;;;;;;27.70;23.08;;;;;;;0.57;95.66;94472.28;1052632;28;20483;-84
2020/12/08 00:11:47;;;;;;;27.58;23.50;;;;;;;0.55;94.66;94463.09;1052551;28;20102;-84
2020/12/08 00:12:22;;;;;;;26.58;22.17;;;;;;;0.58;94.00;94471.25;1052082;28;20032;-84
2020/12/08 00:12:53;;;;;;;29.02;23.73;;;;;;;0.55;94.31;94473.53;1052223;28;20069;-89
2020/12/08 00:13:23;;;;;;;27.48;22.40;;;;;;;0.57;93.80;94472.28;1047597;28;20555;-87
2020/12/08 00:13:54;;;;;;;28.77;23.73;;;;;;;0.56;94.39;94481.13;1048685;28;20020;-87
2020/12/08 00:14:24;;;;;;;31.45;23.75;;;;;;;0.60;95.65;94470.25;1052164;28;20024;-88
2020/12/08 00:14:55;;;;;;;28.27;23.60;;;;;;;0.63;95.69;94469.81;1048296;28;20338;-88
2020/12/08 00:15:25;;;;;;;29.17;23.83;;;;;;;0.56;94.65;94470.69;1052273;28;20015;-88
2020/12/08 00:15:56;;;;;;;28.50;23.52;;;;;;;0.56;95.30;94477.72;1052232;28;20016;-88
2020/12/08 00:16:29;;;;;;;30.92;24.40;;;;;;;0.53;94.97;94465.94;1052265;28;20796;-88
2020/12/08 00:17:01;;;;;;;27.25;22.38;;;;;;;0.60;94.55;94467.66;1052622;28;20020;-89
2020/12/08 00:17:32;;;;;;;29.25;24.52;;;;;;;0.64;96.24;94472.19;1052460;28;20388;-88
2020/12/08 00:18:03;;;;;;;29.98;23.33;;;;;;;0.61;95.10;94477.06;1052184;28;20052;-88
2020/12/08 00:18:33;;;;;;;27.90;22.88;;;;;;;0.63;94.62;94473.19;1052147;28;20031;-88
2020/12/08 00:19:05;;;;;;;28.75;23.63;;;;;;;0.64;94.35;94471.38;1052262;28;20039;-88
2020/12/08 00:19:37;;;;;;;27.65;23.23;;;;;;;0.68;95.46;94478.53;1052252;28;20051;-88
2020/12/08 00:20:07;;;;;;;33.10;24.27;;;;;;;0.57;94.80;94469.66;1052238;28;20017;-88
2020/12/08 00:20:38;;;;;;;29.95;24.33;;;;;;;0.63;95.50;94470.59;1052295;28;20472;-87
2020/12/08 00:21:08;;;;;;;30.63;23.65;;;;;;;0.66;94.32;94475.34;1052251;28;20408;-87
2020/12/08 00:21:42;;;;;;;27.05;23.35;;;;;;;0.67;94.02;94463.09;1052477;28;20381;-87
2020/12/08 00:22:13;;;;;;;27.45;23.00;;;;;;;0.62;93.30;94476.03;1052653;28;20020;-87
2020/12/08 00:22:43;;;;;;;27.30;22.80;;;;;;;0.52;94.36;94468.78;1052491;28;20044;-84
2020/12/08 00:23:14;;;;;;;29.63;22.98;;;;;;;0.44;94.16;94469.09;1052037;28;20051;-85
2020/12/08 00:23:45;;;;;;;27.92;22.58;;;;;;;0.39;94.20;94467.19;1052196;28;20496;-86
2020/12/08 00:24:15;;;;;;;28.02;23.08;;;;;;;0.39;94.56;94467.19;1053370;28;20028;-86
2020/12/08 00:24:46;;;;;;;29.50;23.95;;;;;;;0.46;95.43;94470.44;1051523;28;20425;-85
2020/12/08 00:25:16;;;;;;;27.65;22.83;;;;;;;0.50;94.64;94474.22;1052548;28;20024;-85
2020/12/08 00:25:47;;;;;;;27.58;22.65;;;;;;;0.42;95.12;94464.13;1052601;28;20024;-90
2020/12/08 00:26:18;;;;;;;28.00;22.75;;;;;;;0.45;94.71;94474.06;1052631;28;20067;-89
2020/12/08 00:26:48;;;;;;;28.20;23.10;;;;;;;0.48;94.58;94475.47;1052432;28;20089;-83
2020/12/08 00:27:21;;;;;;;28.08;22.85;;;;;;;0.46;93.94;94473.06;1052375;28;20073;-83
2020/12/08 00:27:51;;;;;;;27.27;22.52;;;;;;;0.48;93.77;94471.03;1052069;28;20015;-82
2020/12/08 00:28:21;;;;;;;28.83;23.15;;;;;;;0.50;95.05;94476.03;1052049;28;20493;-83
2020/12/08 00:28:52;;;;;;;27.55;23.10;;;;;;;0.48;94.14;94471.03;1052025;28;20016;-82
2020/12/08 00:29:22;;;;;;;27.77;23.00;;;;;;;0.52;94.21;94472.16;1052213;28;20511;-83
2020/12/08 00:29:53;;;;;;;28.70;23.23;;;;;;;0.55;94.28;94469.09;1052436;28;20027;-83
2020/12/08 00:30:23;;;;;;;28.17;23.55;;;;;;;0.57;95.21;94474.88;1053367;28;20028;-82
2020/12/08 00:30:53;;;;;;;28.08;22.27;;;;;;;0.50;94.52;94468.22;1053295;28;20100;-82
2020/12/08 00:31:25;;;;;;;28.90;22.83;;;;;;;0.55;94.04;94463.09;1053409;28;20096;-82
2020/12/08 00:31:56;;;;;;;26.85;22.27;;;;;;;0.58;93.62;94473.06;1053389;28;20376;-83
2020/12/08 00:32:29;;;;;;;27.40;23.02;;;;;;;0.57;94.02;94466.28;1053430;28;20027;-81
2020/12/08 00:32:59;;;;;;;28.85;23.23;;;;;;;0.54;94.40;94464.91;1053203;28;20012;-81
2020/12/08 00:33:29;;;;;;;29.25;23.95;;;;;;;0.43;93.93;94465.69;1053066;28;20071;-81
2020/12/08 00:34:00;;;;;;;28.70;23.73;;;;;;;0.43;94.54;94463.09;1053115;28;20077;-81
2020/12/08 00:34:30;;;;;;;31.05;24.25;;;;;;;0.45;95.53;94461.03;1053169;28;20078;-84
2020/12/08 00:35:01;;;;;;;28.92;23.00;;;;;;;0.46;95.25;94461.84;1052808;28;20020;-84
2020/12/08 00:35:31;;;;;;;29.98;24.83;;;;;;;0.50;95.74;94466.41;1053119;28;20035;-85
2020/12/08 00:36:05;;;;;;;29.48;23.95;;;;;;;0.54;94.82;94462.31;1053039;28;20023;-84
2020/12/08 00:36:37;;;;;;;27.40;23.13;;;;;;;0.59;95.43;94469.44;1053033;28;20028;-85
2020/12/08 00:37:08;;;;;;;28.88;23.25;;;;;;;0.55;94.42;94469.09;1052884;28;20032;-85
2020/12/08 00:37:42;;;;;;;30.02;23.80;;;;;;;0.57;94.86;94467.06;1052977;28;20008;-85
2020/12/08 00:38:13;;;;;;;27.95;23.23;;;;;;;0.60;94.54;94470.25;1048035;28;20028;-86
2020/12/08 00:38:43;;;;;;;28.70;23.05;;;;;;;0.64;95.22;94471.38;1049416;28;20017;-84
2020/12/08 00:39:13;;;;;;;27.17;23.27;;;;;;;0.56;94.92;94472.50;1048671;28;20144;-84
2020/12/08 00:39:44;;;;;;;27.88;23.45;;;;;;;0.56;93.26;94467.28;1048766;28;20465;-85
2020/12/08 00:40:15;;;;;;;27.85;22.75;;;;;;;0.55;92.77;94469.09;1049310;28;20489;-85
2020/12/08 00:40:45;;;;;;;28.88;24.67;;;;;;;0.55;92.93;94463.88;1049087;28;20074;-86
2020/12/08 00:41:19;;;;;;;28.98;24.58;;;;;;;0.52;93.89;94458.34;1049039;28;20052;-86
2020/12/08 00:41:49;;;;;;;32.13;25.20;;;;;;;0.52;94.86;94466.97;1049038;28;20249;-85
2020/12/08 00:42:20;;;;;;;29.58;24.20;;;;;;;0.53;94.34;94462.53;1049159;28;20499;-85
2020/12/08 00:42:50;;;;;;;30.35;24.70;;;;;;;0.54;94.97;94466.72;1049065;28;20020;-85
2020/12/08 00:43:20;;;;;;;30.20;23.92;;;;;;;0.51;94.19;94457.56;1049000;28;20040;-85
2020/12/08 00:43:54;;;;;;;29.38;24.13;;;;;;;0.50;94.23;94465.59;1048747;28;20093;-86
2020/12/08 00:44:25;;;;;;;28.08;23.35;;;;;;;0.53;95.56;94471.16;1044687;28;20493;-84
2020/12/08 00:44:56;;;;;;;29.92;23.55;;;;;;;0.51;94.38;94469.78;1044609;28;20553;-84
2020/12/08 00:45:27;;;;;;;29.27;23.10;;;;;;;0.45;94.05;94471.47;1045288;28;20028;-85
2020/12/08 00:45:57;;;;;;;28.50;23.50;;;;;;;0.40;94.29;94470.56;1049499;28;20016;-86
2020/12/08 00:46:27;;;;;;;29.25;23.75;;;;;;;0.52;95.69;94479.19;1049051;28;20048;-85
2020/12/08 00:46:58;;;;;;;31.30;25.00;;;;;;;0.53;95.29;94471.16;1044640;28;20029;-83
2020/12/08 00:47:28;;;;;;;31.20;25.48;;;;;;;0.51;95.35;94475.81;1040640;28;20029;-85
2020/12/08 00:47:59;;;;;;;29.73;24.38;;;;;;;0.49;94.25;94471.84;1040609;28;20064;-82
2020/12/08 00:48:31;;;;;;;30.90;25.65;;;;;;;0.56;93.80;94475.91;1044769;28;20035;-85
2020/12/08 00:49:01;;;;;;;28.90;23.92;;;;;;;0.57;94.64;94474.09;1048777;28;20443;-86
2020/12/08 00:49:32;;;;;;;28.02;22.35;;;;;;;0.55;94.09;94473.53;1049127;28;20025;-81
2020/12/08 00:50:03;;;;;;;29.23;23.65;;;;;;;0.47;94.55;94471.25;1049188;28;20021;-81
2020/12/08 00:50:33;;;;;;;28.70;23.42;;;;;;;0.51;94.40;94483.63;1050773;28;20032;-82
2020/12/08 00:51:04;;;;;;;29.92;24.33;;;;;;;0.54;93.82;94475.34;1052964;28;20027;-82
2020/12/08 00:51:34;;;;;;;28.10;23.98;;;;;;;0.53;94.76;94480.78;1050634;28;20076;-81
2020/12/08 00:52:05;;;;;;;30.20;23.98;;;;;;;0.53;94.74;94480.78;1050871;28;20039;-82
2020/12/08 00:52:35;;;;;;;27.80;23.23;;;;;;;0.55;94.80;94479.53;1051591;28;20079;-81
2020/12/08 00:53:05;;;;;;;28.50;23.02;;;;;;;0.56;94.47;94473.28;1052833;28;20080;-82
2020/12/08 00:53:36;;;;;;;27.65;22.17;;;;;;;0.54;93.53;94475.34;1052923;28;20081;-83
2020/12/08 00:54:06;;;;;;;28.33;23.88;;;;;;;0.57;94.27;94480.09;1048329;28;20081;-82
2020/12/08 00:54:37;;;;;;;27.98;23.73;;;;;;;0.49;93.81;94475.22;1044426;28;20020;-81
2020/12/08 00:55:07;;;;;;;29.15;23.67;;;;;;;0.51;93.81;94478.41;1048396;28;20032;-82
2020/12/08 00:55:38;;;;;;;28.45;24.02;;;;;;;0.55;93.85;94483.94;1048796;28;20032;-82
2020/12/08 00:56:12;;;;;;;28.05;23.35;;;;;;;0.61;94.43;94487.50;1048370;28;20059;-82
2020/12/08 00:56:42;;;;;;;28.83;23.73;;;;;;;0.57;93.68;94476.69;1049062;28;20021;-81
2020/12/08 00:57:19;;;;;;;29.42;22.77;;;;;;;0.56;93.54;94486.34;1052573;28;20032;-82
2020/12/08 00:57:49;;;;;;;30.73;24.45;;;;;;;0.54;94.36;94477.94;1052954;28;20044;-82
2020/12/08 00:58:20;;;;;;;28.85;23.75;;;;;;;0.60;93.95;94485.91;1053019;28;20024;-83
2020/12/08 00:58:50;;;;;;;29.17;23.98;;;;;;;0.58;94.80;94479.06;1053367;28;20087;-82
2020/12/08 00:59:21;;;;;;;28.30;23.83;;;;;;;0.58;93.97;94484.28;1053372;28;20384;-82
2020/12/08 00:59:51;;;;;;;28.90;24.13;;;;;;;0.56;93.87;94477.72;1053270;28;20027;-82
2020/12/08 01:00:21;;;;;;;28.25;23.33;;;;;;;0.53;93.45;94483.38;1053134;28;20028;-83
2020/12/08 01:00:52;;;;;;;29.88;24.20;;;;;;;0.48;93.47;94480.69;1053061;28;20035;-83
2020/12/08 01:01:22;;;;;;;28.40;23.42;;;;;;;0.53;93.07;94486.78;1053298;28;20168;-84
2020/12/08 01:01:53;;;;;;;26.77;22.63;;;;;;;0.54;92.46;94479.75;1053254;28;20354;-84
2020/12/08 01:02:23;;;;;;;27.15;23.08;;;;;;;0.51;92.52;94480.22;1050626;28;20028;-84
2020/12/08 01:02:54;;;;;;;29.33;23.17;;;;;;;0.47;92.64;94481.66;1048991;28;20020;-84
2020/12/08 01:03:24;;;;;;;30.30;24.63;;;;;;;0.36;93.08;94485.09;1049169;28;20024;-83
2020/12/08 01:03:55;;;;;;;29.10;23.33;;;;;;;0.38;94.26;94489.03;1049093;28;20039;-83
2020/12/08 01:04:29;;;;;;;28.25;23.35;;;;;;;0.33;94.43;94485.50;1052016;28;20100;-84
2020/12/08 01:04:59;;;;;;;30.48;24.27;;;;;;;0.36;94.71;94480.66;1053292;28;20020;-83
2020/12/08 01:05:30;;;;;;;27.92;22.23;;;;;;;0.39;94.13;94484.63;1053295;28;20334;-83
2020/12/08 01:06:00;;;;;;;30.30;24.73;;;;;;;0.44;94.76;94482.91;1053164;28;20085;-82
2020/12/08 01:06:31;;;;;;;31.38;24.15;;;;;;;0.39;94.88;94477.59;1049194;28;20016;-83
2020/12/08 01:07:01;;;;;;;28.90;24.23;;;;;;;0.48;94.37;94486.69;1044633;28;20440;-86
2020/12/08 01:07:32;;;;;;;28.27;23.55;;;;;;;0.44;93.42;94488.13;1044670;28;20032;-83
2020/12/08 01:08:02;;;;;;;28.88;23.88;;;;;;;0.41;93.83;94478.16;1044842;28;20489;-83
2020/12/08 01:08:33;;;;;;;28.60;23.85;;;;;;;0.48;94.45;94483.28;1052803;28;20483;-83
2020/12/08 01:09:06;;;;;;;26.95;21.85;;;;;;;0.48;93.64;94478.88;1053196;28;20024;-84
2020/12/08 01:09:36;;;;;;;29.00;23.80;;;;;;;0.51;94.54;94477.63;1053452;28;20018;-83
2020/12/08 01:10:06;;;;;;;28.70;23.95;;;;;;;0.47;94.33;94479.06;1053068;28;20102;-83
2020/12/08 01:10:38;;;;;;;29.63;23.98;;;;;;;0.46;94.02;94472.25;1049200;28;20013;-86
2020/12/08 01:11:08;;;;;;;28.20;22.00;;;;;;;0.40;93.19;94476.56;1049042;28;20363;-83
2020/12/08 01:11:45;;;;;;;29.30;23.35;;;;;;;0.45;94.02;94478.50;1049130;28;20534;-83
2020/12/08 01:12:15;;;;;;;26.88;22.77;;;;;;;0.47;94.16;94477.25;1059603;27;20090;-84
2020/12/08 01:12:46;;;;;;;29.52;24.00;;;;;;;0.40;93.53;94470.56;1063357;27;20476;-83
2020/12/08 01:13:16;;;;;;;31.23;24.50;;;;;;;0.49;94.81;94470.03;1063169;27;20456;-83
2020/12/08 01:13:47;;;;;;;27.08;22.77;;;;;;;0.47;93.93;94477.25;1059022;28;20042;-84
2020/12/08 01:14:17;;;;;;;28.98;22.25;;;;;;;0.57;94.78;94474.88;1054054;28;20048;-84
2020/12/08 01:14:47;;;;;;;28.15;22.75;;;;;;;0.49;94.00;94464.81;1054802;28;20081;-83
2020/12/08 01:15:18;;;;;;;25.88;22.42;;;;;;;0.55;94.33;94473.53;1055005;28;20024;-83
2020/12/08 01:15:48;;;;;;;28.30;23.38;;;;;;;0.51;94.40;94464.56;1048869;28;20023;-83
2020/12/08 01:16:23;;;;;;;27.67;22.73;;;;;;;0.57;93.11;94477.50;1047001;28;20035;-83
2020/12/08 01:16:57;;;;;;;29.08;22.95;;;;;;;0.53;94.12;94475.56;1048778;28;20028;-83
2020/12/08 01:17:27;;;;;;;27.10;23.08;;;;;;;0.49;93.29;94474.44;1048910;28;20109;-83
2020/12/08 01:17:58;;;;;;;28.20;23.42;;;;;;;0.49;93.70;94470.03;1048958;28;20534;-84
2020/12/08 01:18:28;;;;;;;29.63;23.65;;;;;;;0.46;93.00;94470.44;1053242;28;20031;-83
2020/12/08 01:18:59;;;;;;;27.25;22.20;;;;;;;0.47;94.00;94472.03;1053740;28;20078;-84
2020/12/08 01:19:29;;;;;;;29.13;23.20;;;;;;;0.45;94.10;94479.28;1053790;28;20093;-85
2020/12/08 01:20:00;;;;;;;28.02;23.38;;;;;;;0.44;94.50;94472.50;1053126;28;20039;-84
2020/12/08 01:20:30;;;;;;;26.35;21.67;;;;;;;0.41;93.47;94472.94;1049411;28;20105;-84
2020/12/08 01:21:00;;;;;;;29.60;23.20;;;;;;;0.36;93.50;94470.25;1048898;28;20020;-85
2020/12/08 01:21:31;;;;;;;27.92;22.98;;;;;;;0.38;93.66;94470.81;1049222;28;20024;-85
2020/12/08 01:22:01;;;;;;;26.85;22.55;;;;;;;0.41;94.42;94472.94;1049270;28;20021;-85
2020/12/08 01:22:32;;;;;;;28.13;23.30;;;;;;;0.39;94.32;94467.19;1048998;28;20031;-85
2020/12/08 01:23:02;;;;;;;28.80;22.52;;;;;;;0.41;93.91;94475.56;1049075;28;20023;-85
2020/12/08 01:23:32;;;;;;;28.65;23.63;;;;;;;0.35;93.42;94468.63;1049220;28;20058;-86
2020/12/08 01:24:03;;;;;;;29.83;23.90;;;;;;;0.39;94.33;94469.00;1053428;28;20028;-85
2020/12/08 01:24:33;;;;;;;28.95;24.08;;;;;;;0.36;94.21;94467.63;1053731;28;20028;-87
2020/12/08 01:25:04;;;;;;;28.48;23.27;;;;;;;0.42;94.42;94471.94;1055724;28;20016;-86
2020/12/08 01:25:36;;;;;;;28.50;23.60;;;;;;;0.44;93.74;94477.72;1054620;28;20024;-88
2020/12/08 01:26:06;;;;;;;29.75;24.20;;;;;;;0.42;93.24;94473.75;1057741;28;20020;-90
2020/12/08 01:26:37;;;;;;;28.80;23.48;;;;;;;0.41;93.20;94478.16;1054966;28;20445;-89
2020/12/08 01:27:07;;;;;;;26.55;22.55;;;;;;;0.43;93.78;94476.13;1053932;28;20560;-89
2020/12/08 01:27:38;;;;;;;27.48;23.08;;;;;;;0.52;95.24;94480.00;1054030;28;20020;-89
2020/12/08 01:28:08;;;;;;;30.55;24.20;;;;;;;0.50;94.11;94476.03;1053762;28;20103;-89
2020/12/08 01:28:39;;;;;;;29.70;23.45;;;;;;;0.51;93.99;94478.41;1054112;28;20469;-89
2020/12/08 01:29:10;;;;;;;27.98;22.27;;;;;;;0.50;93.18;94476.03;1053817;28;20023;-89
2020/12/08 01:29:40;;;;;;;28.88;23.13;;;;;;;0.49;93.36;94477.06;1053999;28;20012;-89
2020/12/08 01:30:10;;;;;;;27.70;23.10;;;;;;;0.50;94.11;94470.81;1053737;28;20479;-89
2020/12/08 01:30:41;;;;;;;30.00;23.05;;;;;;;0.47;93.89;94472.03;1054077;28;20016;-89
2020/12/08 01:31:11;;;;;;;30.05;25.02;;;;;;;0.45;94.03;94479.28;1050487;28;20016;-89
2020/12/08 01:31:42;;;;;;;28.95;23.40;;;;;;;0.46;94.64;94475.66;1048875;28;20025;-87
2020/12/08 01:32:12;;;;;;;28.95;24.27;;;;;;;0.53;94.05;94476.38;1049422;28;20469;-89
2020/12/08 01:32:42;;;;;;;29.45;23.83;;;;;;;0.62;94.63;94483.84;1049046;28;20032;-89
2020/12/08 01:33:13;;;;;;;28.27;22.88;;;;;;;0.59;94.39;94477.25;1050044;28;20016;-89
2020/12/08 01:33:43;;;;;;;29.33;24.60;;;;;;;0.61;93.74;94487.50;1044567;28;20051;-89
2020/12/08 01:34:14;;;;;;;28.55;23.77;;;;;;;0.63;93.07;94480.22;1042411;28;20021;-89
2020/12/08 01:34:45;;;;;;;28.38;23.80;;;;;;;0.63;93.92;94480.22;1038817;28;20013;-89
2020/12/08 01:35:17;;;;;;;29.77;24.35;;;;;;;0.62;93.50;94473.44;1040858;28;20382;-89
2020/12/08 01:35:48;;;;;;;30.15;25.05;;;;;;;0.58;92.54;94478.28;1049249;28;20078;-89
2020/12/08 01:36:18;;;;;;;30.38;25.05;;;;;;;0.46;92.84;94478.28;1053015;28;20078;-89
2020/12/08 01:36:52;;;;;;;29.42;23.60;;;;;;;0.50;92.93;94473.41;1053144;28;20031;-89
2020/12/08 01:37:22;;;;;;;28.83;23.38;;;;;;;0.51;94.07;94478.41;1053330;28;20445;-89
2020/12/08 01:37:54;;;;;;;29.17;24.38;;;;;;;0.53;92.97;94478.97;1053370;28;20013;-89
2020/12/08 01:38:24;;;;;;;27.38;22.00;;;;;;;0.42;92.93;94471.94;1053354;28;20024;-89
2020/12/08 01:38:55;;;;;;;29.48;24.33;;;;;;;0.44;92.99;94479.53;1053275;28;20020;-89
2020/12/08 01:39:25;;;;;;;28.45;23.17;;;;;;;0.40;93.33;94479.19;1053309;28;20073;-89
2020/12/08 01:39:56;;;;;;;31.20;24.50;;;;;;;0.27;93.38;94471.56;1053146;28;20020;-89
2020/12/08 01:40:26;;;;;;;32.38;24.85;;;;;;;0.30;94.21;94473.72;1053272;28;20039;-89
2020/12/08 01:40:56;;;;;;;28.65;23.70;;;;;;;0.37;95.32;94471.81;1052740;28;20151;-89
2020/12/08 01:41:28;;;;;;;30.17;24.42;;;;;;;0.28;94.19;94478.38;1052938;28;20036;-89
2020/12/08 01:41:58;;;;;;;29.95;23.77;;;;;;;0.33;94.70;94469.88;1053188;28;20020;-89
2020/12/08 01:42:29;;;;;;;28.85;23.27;;;;;;;0.40;95.01;94481.00;1053154;28;20070;-89
2020/12/08 01:42:59;;;;;;;29.95;24.55;;;;;;;0.30;94.27;94478.94;1053347;28;20049;-89
2020/12/08 01:43:30;;;;;;;34.08;26.15;;;;;;;0.31;94.22;94482.34;1053128;28;20028;-88
2020/12/08 01:44:00;;;;;;;29.52;24.08;;;;;;;0.37;94.37;94482.25;1053095;28;20028;-89
2020/12/08 01:44:31;;;;;;;28.20;24.23;;;;;;;0.48;95.83;94484.06;1052768;28;20024;-89
2020/12/08 01:45:01;;;;;;;29.65;24.40;;;;;;;0.51;95.26;94485.44;1057061;28;20026;-89
2020/12/08 01:45:33;;;;;;;28.23;23.38;;;;;;;0.40;94.01;94479.19;1057139;28;20054;-89
2020/12/08 01:46:03;;;;;;;25.73;21.83;;;;;;;0.44;92.97;94482.91;1057330;28;20023;-89
2020/12/08 01:46:34;;;;;;;28.80;21.90;;;;;;;0.45;93.51;94479.28;1052589;28;20083;-89
2020/12/08 01:47:04;;;;;;;27.05;22.48;;;;;;;0.44;93.56;94479.53;1040509;28;20029;-88
2020/12/08 01:47:34;;;;;;;26.38;22.67;;;;;;;0.47;92.64;94482.47;1040407;28;20039;-84
2020/12/08 01:48:05;;;;;;;27.77;22.60;;;;;;;0.50;94.04;94476.03;1036298;28;20030;-82
2020/12/08 01:48:37;;;;;;;27.98;23.33;;;;;;;0.43;93.29;94475.31;1040433;28;20034;-83
2020/12/08 01:49:07;;;;;;;26.98;22.75;;;;;;;0.45;93.26;94481.09;1040389;28;20017;-83
2020/12/08 01:49:37;;;;;;;26.02;22.23;;;;;;;0.50;94.18;94476.03;1036440;28;20030;-84
2020/12/08 01:50:08;;;;;;;25.83;21.52;;;;;;;0.49;93.70;94467.41;1040571;28;20025;-84
2020/12/08 01:50:38;;;;;;;27.55;22.98;;;;;;;0.45;93.38;94474.06;1036569;28;20014;-84
2020/12/08 01:51:09;;;;;;;29.48;23.02;;;;;;;0.47;93.11;94477.25;1044451;28;20017;-84
2020/12/08 01:51:39;;;;;;;28.90;22.92;;;;;;;0.44;94.69;94474.31;1044535;28;20449;-85
2020/12/08 01:52:11;;;;;;;28.13;22.70;;;;;;;0.44;94.47;94474.31;1044522;28;20017;-83
2020/12/08 01:52:42;;;;;;;28.90;23.05;;;;;;;0.46;93.89;94480.09;1048692;28;20079;-83
2020/12/08 01:53:12;;;;;;;28.48;23.20;;;;;;;0.49;94.81;94464.81;1047279;28;20050;-83
2020/12/08 01:53:48;;;;;;;30.15;24.10;;;;;;;0.48;94.19;94475.47;1047442;28;20063;-83
2020/12/08 01:54:18;;;;;;;26.42;22.95;;;;;;;0.47;93.46;94472.03;1049303;28;20029;-83
2020/12/08 01:54:53;;;;;;;28.65;22.83;;;;;;;0.52;94.61;94474.78;1052776;28;20024;-83
2020/12/08 01:55:23;;;;;;;28.08;23.60;;;;;;;0.49;94.31;94464.81;1052842;28;20039;-83
2020/12/08 01:55:53;;;;;;;28.15;22.92;;;;;;;0.53;94.39;94472.97;1048495;28;20033;-83
2020/12/08 01:56:24;;;;;;;28.70;22.67;;;;;;;0.56;93.32;94480.31;1048445;28;20016;-83
2020/12/08 01:56:54;;;;;;;30.13;23.17;;;;;;;0.47;93.09;94476.47;1048519;28;20032;-83
2020/12/08 01:57:25;;;;;;;27.88;22.85;;;;;;;0.49;93.62;94475.22;1044566;28;20025;-83
2020/12/08 01:57:55;;;;;;;29.13;24.15;;;;;;;0.53;93.98;94471.16;1052833;28;20024;-82
2020/12/08 01:58:25;;;;;;;29.17;23.98;;;;;;;0.49;94.41;94467.41;1048454;28;20029;-82
2020/12/08 01:58:56;;;;;;;27.60;23.00;;;;;;;0.47;94.03;94477.25;1048668;28;20024;-83
2020/12/08 01:59:27;;;;;;;26.42;22.20;;;;;;;0.42;93.55;94478.97;1052799;28;20368;-84
2020/12/08 01:59:57;;;;;;;29.58;24.52;;;;;;;0.44;94.61;94474.31;1052842;28;20409;-84
2020/12/08 02:00:27;;;;;;;28.75;22.80;;;;;;;0.45;94.52;94468.06;1052971;28;20020;-83
2020/12/08 02:00:58;;;;;;;27.95;23.88;;;;;;;0.45;94.93;94468.06;1053093;28;20012;-84
2020/12/08 02:01:28;;;;;;;30.00;24.45;;;;;;;0.45;94.64;94471.47;1053059;28;20024;-83
2020/12/08 02:01:59;;;;;;;28.60;23.35;;;;;;;0.46;94.83;94465.25;1052814;28;20024;-84
2020/12/08 02:02:29;;;;;;;27.45;22.70;;;;;;;0.48;94.17;94472.84;1052669;28;20024;-83
2020/12/08 02:03:00;;;;;;;26.98;21.77;;;;;;;0.53;93.32;94471.16;1052761;28;20026;-83
2020/12/08 02:03:30;;;;;;;25.35;21.77;;;;;;;0.54;93.45;94471.94;1048672;28;20020;-83
2020/12/08 02:04:01;;;;;;;26.35;21.83;;;;;;;0.56;92.76;94475.91;1044542;28;20072;-84
2020/12/08 02:04:31;;;;;;;27.85;23.15;;;;;;;0.50;93.06;94476.03;1044220;28;20025;-84
2020/12/08 02:05:02;;;;;;;29.20;23.00;;;;;;;0.46;93.58;94480.88;1044570;28;20027;-85
2020/12/08 02:05:32;;;;;;;28.23;23.10;;;;;;;0.46;93.85;94480.88;1048725;28;20099;-86
2020/12/08 02:06:03;;;;;;;27.90;21.98;;;;;;;0.46;93.56;94472.25;1044471;28;20074;-86
2020/12/08 02:06:33;;;;;;;28.52;22.50;;;;;;;0.44;93.03;94477.72;1044398;28;20021;-84
2020/12/08 02:07:04;;;;;;;27.52;23.48;;;;;;;0.46;94.88;94475.66;1044538;28;20470;-85
2020/12/08 02:07:34;;;;;;;28.00;23.27;;;;;;;0.43;94.06;94470.91;1044465;28;20096;-86
2020/12/08 02:08:05;;;;;;;31.00;24.73;;;;;;;0.44;94.74;94476.91;1048927;28;20408;-86
2020/12/08 02:08:37;;;;;;;27.70;23.17;;;;;;;0.43;94.53;94481.34;1052123;28;20036;-86
2020/12/08 02:09:07;;;;;;;28.80;23.20;;;;;;;0.37;93.96;94474.44;1052759;28;20028;-86
2020/12/08 02:09:38;;;;;;;28.90;22.90;;;;;;;0.42;94.67;94469.31;1052717;28;20522;-86
2020/12/08 02:10:08;;;;;;;26.45;21.58;;;;;;;0.48;94.76;94475.47;1052517;28;20028;-87
2020/12/08 02:10:38;;;;;;;29.58;23.05;;;;;;;0.45;95.18;94474.06;1051313;28;20032;-87
2020/12/08 02:11:09;;;;;;;28.35;22.67;;;;;;;0.43;94.75;94476.13;1053098;28;20039;-87
2020/12/08 02:11:39;;;;;;;29.67;23.55;;;;;;;0.49;94.94;94482.25;1052985;28;20024;-89
2020/12/08 02:12:10;;;;;;;28.98;24.25;;;;;;;0.47;94.72;94473.84;1053074;28;20085;-89
2020/12/08 02:12:41;;;;;;;26.92;22.75;;;;;;;0.46;94.27;94472.25;1052990;28;20530;-88
2020/12/08 02:13:12;;;;;;;28.60;23.63;;;;;;;0.39;93.88;94467.19;1052973;28;20016;-88
2020/12/08 02:13:42;;;;;;;28.50;22.98;;;;;;;0.41;94.22;94478.16;1053218;28;20043;-88
2020/12/08 02:14:12;;;;;;;27.27;23.05;;;;;;;0.43;95.34;94470.13;1053078;28;20032;-89
2020/12/08 02:14:43;;;;;;;28.88;22.73;;;;;;;0.40;95.35;94476.56;1052947;28;20016;-88
2020/12/08 02:15:13;;;;;;;28.80;23.02;;;;;;;0.42;94.67;94478.97;1053002;28;20458;-88
2020/12/08 02:15:44;;;;;;;27.13;21.48;;;;;;;0.43;94.96;94478.72;1052965;28;20024;-88
2020/12/08 02:16:15;;;;;;;27.67;22.65;;;;;;;0.51;95.41;94483.63;1053015;28;20021;-85
2020/12/08 02:16:45;;;;;;;26.10;21.60;;;;;;;0.52;94.75;94479.19;1052996;28;20335;-85
2020/12/08 02:17:16;;;;;;;26.75;21.30;;;;;;;0.47;93.75;94474.66;1052937;28;20024;-85
2020/12/08 02:17:46;;;;;;;28.08;22.63;;;;;;;0.42;93.53;94474.53;1053013;28;20012;-84
2020/12/08 02:18:16;;;;;;;27.20;20.80;;;;;;;0.41;93.71;94478.16;1052695;28;20020;-84
2020/12/08 02:18:47;;;;;;;27.85;22.58;;;;;;;0.46;93.49;94480.88;1048514;28;20016;-85
2020/12/08 02:19:17;;;;;;;28.30;23.00;;;;;;;0.40;93.73;94470.56;1044442;28;20021;-85
2020/12/08 02:19:48;;;;;;;27.85;23.17;;;;;;;0.35;93.78;94471.22;1044418;28;20051;-84
2020/12/08 02:20:18;;;;;;;28.23;23.25;;;;;;;0.36;94.72;94467.63;1048504;28;20055;-86
2020/12/08 02:20:56;;;;;;;28.10;23.23;;;;;;;0.36;94.26;94474.66;1052742;28;20020;-85
2020/12/08 02:21:31;;;;;;;27.25;21.65;;;;;;;0.40;93.21;94473.19;1052770;28;20370;-85
2020/12/08 02:22:02;;;;;;;29.10;21.98;;;;;;;0.37;92.87;94474.44;1052722;28;20108;-85
2020/12/08 02:22:32;;;;;;;24.88;20.83;;;;;;;0.24;93.33;94478.03;1052686;28;20027;-85
2020/12/08 02:23:02;;;;;;;27.75;22.45;;;;;;;0.22;93.90;94468.84;1051844;28;20035;-85
2020/12/08 02:23:33;;;;;;;27.48;21.73;;;;;;;0.29;95.29;94474.75;1052938;28;20027;-85